Taquara, Brazil
Current Conditions -  °F | °C
As of 6:00 PM on Friday 19 Dec 2014 (Local Time) from SBCO Reporting Station
Few Clouds Few Clouds  
Wind Chill: 86°   Ceiling: Unl
Heat Index: 86°   Visibility: 6mi
Dew Point: 61°   Wind: 16mph
Humidity: 43%   Direction: 150°SSE
Pressure: 29.71"   Gusts: NA
Location:  29.65°S, 50.78°W
Report Text: SBCO 192000Z 15014KT 110V180 9999 FEW050 FEW055TCU 30/16 Q1006
Loading
Personal Weather Stations






























Interactive Weather Map New forecast layout! Learn more

10-Day Weather Forecast

Advertisements
Track Severe Weather on mobile